Los Gatos, California
Current Conditions -  °F | °C
As of 6:53 AM on Monday 24 Nov 2014 (Local Time) from KSJC Reporting Station
Broken Clouds Broken Clouds  
Wind Chill:   Ceiling: 18000
Heat Index:   Visibility: 10mi
Dew Point:   Wind: 5mph
Humidity: 89%   Direction: 130°SE
Pressure: 30.36"   Gusts: NA
Location:  37.22°N, 121.97°W
Report Text: KSJC 241453Z 13004KT 10SM FEW100 SCT140 BKN180 03/02 A3036 RMK AO2 SLP281 T00330017 51015
Loading
Personal Weather Stations






























Interactive Weather Map New forecast layout! Learn more

10-Day Weather Forecast

Advertisements
Track Severe Weather on mobile